<?xml version="1.0" encoding="UTF-8" standalone="no" ?>
<gpx xmlns="http://www.topografix.com/GPX/1/1" xmlns:xsi="http://www.w3.org/2001/XMLSchema-instance" xsi:schemaLocation="http://www.topografix.com/GPX/1/1 http://www.topografix.com/GPX/1/1/gpx.xsd" version="1.1" creator="VisuGPX - https://www.visugpx.com">
  <metadata>
    <name>secteur Saverne - Dabo - Petite Pierre</name>
  </metadata>
  <trk>
    <name><![CDATA[secteur Saverne - Dabo - Petite Pierre_41]]></name>
    <trkseg>
      <trkpt lat="48.67561" lon="7.25967">
        <ele>462.7</ele>
        <time>2020-05-10T15:01:15Z</time>
      </trkpt>
      <trkpt lat="48.67561" lon="7.25967">
        <ele>462.7</ele>
        <time>2020-05-10T15:01:15Z</time>
      </trkpt>
      <trkpt lat="48.67561" lon="7.25967">
        <ele>462.7</ele>
        <time>2020-05-10T15:01:15Z</time>
      </trkpt>
      <trkpt lat="48.67561" lon="7.25967">
        <ele>462.7</ele>
        <time>2020-05-10T15:01:15Z</time>
      </trkpt>
      <trkpt lat="48.67561" lon="7.25967">
        <ele>462.7</ele>
        <time>2020-05-10T15:01:15Z</time>
      </trkpt>
      <trkpt lat="48.67562" lon="7.25964">
        <ele>462.8</ele>
        <time>2020-05-10T15:01:16Z</time>
      </trkpt>
      <trkpt lat="48.67563" lon="7.25953">
        <ele>463</ele>
        <time>2020-05-10T15:01:18Z</time>
      </trkpt>
      <trkpt lat="48.67563" lon="7.2594">
        <ele>463.2</ele>
        <time>2020-05-10T15:01:20Z</time>
      </trkpt>
      <trkpt lat="48.67564" lon="7.25935">
        <ele>463.2</ele>
        <time>2020-05-10T15:01:21Z</time>
      </trkpt>
      <trkpt lat="48.67565" lon="7.25924">
        <ele>463.3</ele>
        <time>2020-05-10T15:01:23Z</time>
      </trkpt>
      <trkpt lat="48.67566" lon="7.25918">
        <ele>463.3</ele>
        <time>2020-05-10T15:01:24Z</time>
      </trkpt>
      <trkpt lat="48.67569" lon="7.25908">
        <ele>463.3</ele>
        <time>2020-05-10T15:01:26Z</time>
      </trkpt>
      <trkpt lat="48.67573" lon="7.25896">
        <ele>463.4</ele>
        <time>2020-05-10T15:01:28Z</time>
      </trkpt>
      <trkpt lat="48.67576" lon="7.2589">
        <ele>463.5</ele>
        <time>2020-05-10T15:01:29Z</time>
      </trkpt>
      <trkpt lat="48.6758" lon="7.25884">
        <ele>463.7</ele>
        <time>2020-05-10T15:01:30Z</time>
      </trkpt>
      <trkpt lat="48.67584" lon="7.25881">
        <ele>464.4</ele>
        <time>2020-05-10T15:01:31Z</time>
      </trkpt>
      <trkpt lat="48.6759" lon="7.2588">
        <ele>464.6</ele>
        <time>2020-05-10T15:01:32Z</time>
      </trkpt>
      <trkpt lat="48.676" lon="7.25878">
        <ele>465</ele>
        <time>2020-05-10T15:01:34Z</time>
      </trkpt>
      <trkpt lat="48.67605" lon="7.25877">
        <ele>465.3</ele>
        <time>2020-05-10T15:01:35Z</time>
      </trkpt>
      <trkpt lat="48.67614" lon="7.25877">
        <ele>465.6</ele>
        <time>2020-05-10T15:01:37Z</time>
      </trkpt>
      <trkpt lat="48.67618" lon="7.25879">
        <ele>465.8</ele>
        <time>2020-05-10T15:01:38Z</time>
      </trkpt>
      <trkpt lat="48.67624" lon="7.25882">
        <ele>466.7</ele>
        <time>2020-05-10T15:01:40Z</time>
      </trkpt>
      <trkpt lat="48.67628" lon="7.25888">
        <ele>467.2</ele>
        <time>2020-05-10T15:01:42Z</time>
      </trkpt>
      <trkpt lat="48.67629" lon="7.25889">
        <ele>467.3</ele>
        <time>2020-05-10T15:01:43Z</time>
      </trkpt>
      <trkpt lat="48.67629" lon="7.25889">
        <ele>467.3</ele>
        <time>2020-05-10T15:01:44Z</time>
      </trkpt>
      <trkpt lat="48.67629" lon="7.25888">
        <ele>467.4</ele>
        <time>2020-05-10T15:01:46Z</time>
      </trkpt>
      <trkpt lat="48.67628" lon="7.25887">
        <ele>467.4</ele>
        <time>2020-05-10T15:01:47Z</time>
      </trkpt>
      <trkpt lat="48.67628" lon="7.25888">
        <ele>467.5</ele>
        <time>2020-05-10T15:01:48Z</time>
      </trkpt>
      <trkpt lat="48.67628" lon="7.25889">
        <ele>467.5</ele>
        <time>2020-05-10T15:01:50Z</time>
      </trkpt>
      <trkpt lat="48.67628" lon="7.25889">
        <ele>467.6</ele>
        <time>2020-05-10T15:01:51Z</time>
      </trkpt>
      <trkpt lat="48.67628" lon="7.25889">
        <ele>467.6</ele>
        <time>2020-05-10T15:01:52Z</time>
      </trkpt>
      <trkpt lat="48.67628" lon="7.25891">
        <ele>467.7</ele>
        <time>2020-05-10T15:01:54Z</time>
      </trkpt>
      <trkpt lat="48.67629" lon="7.25892">
        <ele>467.9</ele>
        <time>2020-05-10T15:01:55Z</time>
      </trkpt>
      <trkpt lat="48.6763" lon="7.25894">
        <ele>468</ele>
        <time>2020-05-10T15:01:57Z</time>
      </trkpt>
      <trkpt lat="48.67631" lon="7.25894">
        <ele>468.1</ele>
        <time>2020-05-10T15:01:58Z</time>
      </trkpt>
      <trkpt lat="48.67633" lon="7.25898">
        <ele>468.5</ele>
        <time>2020-05-10T15:02:00Z</time>
      </trkpt>
      <trkpt lat="48.67633" lon="7.259">
        <ele>468.6</ele>
        <time>2020-05-10T15:02:02Z</time>
      </trkpt>
      <trkpt lat="48.67633" lon="7.25904">
        <ele>468.9</ele>
        <time>2020-05-10T15:02:04Z</time>
      </trkpt>
      <trkpt lat="48.67633" lon="7.25906">
        <ele>469</ele>
        <time>2020-05-10T15:02:06Z</time>
      </trkpt>
      <trkpt lat="48.67633" lon="7.25906">
        <ele>469</ele>
        <time>2020-05-10T15:02:07Z</time>
      </trkpt>
      <trkpt lat="48.67633" lon="7.25906">
        <ele>469.1</ele>
        <time>2020-05-10T15:02:09Z</time>
      </trkpt>
      <trkpt lat="48.67633" lon="7.25907">
        <ele>469.2</ele>
        <time>2020-05-10T15:02:10Z</time>
      </trkpt>
      <trkpt lat="48.67634" lon="7.2591">
        <ele>469.4</ele>
        <time>2020-05-10T15:02:12Z</time>
      </trkpt>
      <trkpt lat="48.67634" lon="7.25912">
        <ele>469.5</ele>
        <time>2020-05-10T15:02:13Z</time>
      </trkpt>
      <trkpt lat="48.67634" lon="7.25913">
        <ele>469.6</ele>
        <time>2020-05-10T15:02:14Z</time>
      </trkpt>
      <trkpt lat="48.67635" lon="7.25915">
        <ele>469.8</ele>
        <time>2020-05-10T15:02:16Z</time>
      </trkpt>
      <trkpt lat="48.67635" lon="7.25916">
        <ele>469.9</ele>
        <time>2020-05-10T15:02:17Z</time>
      </trkpt>
      <trkpt lat="48.67636" lon="7.25919">
        <ele>470.1</ele>
        <time>2020-05-10T15:02:19Z</time>
      </trkpt>
      <trkpt lat="48.67637" lon="7.25921">
        <ele>470.3</ele>
        <time>2020-05-10T15:02:20Z</time>
      </trkpt>
      <trkpt lat="48.67638" lon="7.25923">
        <ele>470.5</ele>
        <time>2020-05-10T15:02:22Z</time>
      </trkpt>
      <trkpt lat="48.67639" lon="7.25926">
        <ele>470.7</ele>
        <time>2020-05-10T15:02:24Z</time>
      </trkpt>
      <trkpt lat="48.67639" lon="7.2593">
        <ele>470.9</ele>
        <time>2020-05-10T15:02:26Z</time>
      </trkpt>
      <trkpt lat="48.67639" lon="7.25931">
        <ele>471</ele>
        <time>2020-05-10T15:02:27Z</time>
      </trkpt>
      <trkpt lat="48.67639" lon="7.25934">
        <ele>471.2</ele>
        <time>2020-05-10T15:02:29Z</time>
      </trkpt>
      <trkpt lat="48.6764" lon="7.25939">
        <ele>471.6</ele>
        <time>2020-05-10T15:02:31Z</time>
      </trkpt>
      <trkpt lat="48.6764" lon="7.25941">
        <ele>471.7</ele>
        <time>2020-05-10T15:02:32Z</time>
      </trkpt>
      <trkpt lat="48.67641" lon="7.25943">
        <ele>471.8</ele>
        <time>2020-05-10T15:02:34Z</time>
      </trkpt>
      <trkpt lat="48.67642" lon="7.25946">
        <ele>472</ele>
        <time>2020-05-10T15:02:35Z</time>
      </trkpt>
      <trkpt lat="48.67643" lon="7.25951">
        <ele>472.4</ele>
        <time>2020-05-10T15:02:37Z</time>
      </trkpt>
      <trkpt lat="48.67646" lon="7.2596">
        <ele>473</ele>
        <time>2020-05-10T15:02:39Z</time>
      </trkpt>
      <trkpt lat="48.67648" lon="7.25963">
        <ele>473.2</ele>
        <time>2020-05-10T15:02:40Z</time>
      </trkpt>
      <trkpt lat="48.67651" lon="7.25968">
        <ele>473.6</ele>
        <time>2020-05-10T15:02:42Z</time>
      </trkpt>
      <trkpt lat="48.67653" lon="7.25972">
        <ele>473.8</ele>
        <time>2020-05-10T15:02:43Z</time>
      </trkpt>
      <trkpt lat="48.67654" lon="7.25973">
        <ele>473.9</ele>
        <time>2020-05-10T15:02:44Z</time>
      </trkpt>
      <trkpt lat="48.67658" lon="7.25975">
        <ele>474.3</ele>
        <time>2020-05-10T15:02:46Z</time>
      </trkpt>
      <trkpt lat="48.67661" lon="7.25976">
        <ele>474.4</ele>
        <time>2020-05-10T15:02:47Z</time>
      </trkpt>
      <trkpt lat="48.67664" lon="7.25975">
        <ele>474.7</ele>
        <time>2020-05-10T15:02:49Z</time>
      </trkpt>
      <trkpt lat="48.67667" lon="7.25974">
        <ele>474.8</ele>
        <time>2020-05-10T15:02:50Z</time>
      </trkpt>
      <trkpt lat="48.67669" lon="7.25974">
        <ele>474.9</ele>
        <time>2020-05-10T15:02:52Z</time>
      </trkpt>
      <trkpt lat="48.67674" lon="7.25974">
        <ele>475.2</ele>
        <time>2020-05-10T15:02:53Z</time>
      </trkpt>
      <trkpt lat="48.67677" lon="7.25974">
        <ele>475.3</ele>
        <time>2020-05-10T15:02:54Z</time>
      </trkpt>
      <trkpt lat="48.67681" lon="7.25972">
        <ele>475.6</ele>
        <time>2020-05-10T15:02:56Z</time>
      </trkpt>
      <trkpt lat="48.67685" lon="7.2597">
        <ele>475.9</ele>
        <time>2020-05-10T15:02:58Z</time>
      </trkpt>
      <trkpt lat="48.67689" lon="7.25969">
        <ele>476.2</ele>
        <time>2020-05-10T15:03:00Z</time>
      </trkpt>
      <trkpt lat="48.6769" lon="7.25969">
        <ele>476.3</ele>
        <time>2020-05-10T15:03:01Z</time>
      </trkpt>
      <trkpt lat="48.67693" lon="7.25967">
        <ele>476.5</ele>
        <time>2020-05-10T15:03:03Z</time>
      </trkpt>
      <trkpt lat="48.67694" lon="7.25966">
        <ele>476.6</ele>
        <time>2020-05-10T15:03:04Z</time>
      </trkpt>
      <trkpt lat="48.67696" lon="7.25965">
        <ele>476.7</ele>
        <time>2020-05-10T15:03:06Z</time>
      </trkpt>
      <trkpt lat="48.67695" lon="7.25964">
        <ele>476.8</ele>
        <time>2020-05-10T15:03:08Z</time>
      </trkpt>
      <trkpt lat="48.67695" lon="7.25964">
        <ele>476.8</ele>
        <time>2020-05-10T15:03:09Z</time>
      </trkpt>
      <trkpt lat="48.67695" lon="7.25964">
        <ele>476.8</ele>
        <time>2020-05-10T15:03:11Z</time>
      </trkpt>
      <trkpt lat="48.67695" lon="7.25964">
        <ele>476.8</ele>
        <time>2020-05-10T15:03:12Z</time>
      </trkpt>
      <trkpt lat="48.67696" lon="7.25965">
        <ele>476.9</ele>
        <time>2020-05-10T15:03:13Z</time>
      </trkpt>
      <trkpt lat="48.67696" lon="7.25966">
        <ele>476.9</ele>
        <time>2020-05-10T15:03:14Z</time>
      </trkpt>
      <trkpt lat="48.67697" lon="7.25969">
        <ele>477</ele>
        <time>2020-05-10T15:03:16Z</time>
      </trkpt>
      <trkpt lat="48.67698" lon="7.25969">
        <ele>477.1</ele>
        <time>2020-05-10T15:03:17Z</time>
      </trkpt>
      <trkpt lat="48.677" lon="7.25971">
        <ele>477.1</ele>
        <time>2020-05-10T15:03:19Z</time>
      </trkpt>
      <trkpt lat="48.67701" lon="7.25971">
        <ele>477.2</ele>
        <time>2020-05-10T15:03:20Z</time>
      </trkpt>
      <trkpt lat="48.67703" lon="7.25973">
        <ele>477.3</ele>
        <time>2020-05-10T15:03:22Z</time>
      </trkpt>
      <trkpt lat="48.67707" lon="7.25975">
        <ele>477.4</ele>
        <time>2020-05-10T15:03:24Z</time>
      </trkpt>
      <trkpt lat="48.6771" lon="7.25978">
        <ele>477.4</ele>
        <time>2020-05-10T15:03:26Z</time>
      </trkpt>
      <trkpt lat="48.67713" lon="7.25979">
        <ele>477.5</ele>
        <time>2020-05-10T15:03:28Z</time>
      </trkpt>
      <trkpt lat="48.67716" lon="7.2598">
        <ele>477.5</ele>
        <time>2020-05-10T15:03:30Z</time>
      </trkpt>
      <trkpt lat="48.67718" lon="7.2598">
        <ele>477.6</ele>
        <time>2020-05-10T15:03:32Z</time>
      </trkpt>
      <trkpt lat="48.67719" lon="7.2598">
        <ele>477.6</ele>
        <time>2020-05-10T15:03:33Z</time>
      </trkpt>
      <trkpt lat="48.6772" lon="7.2598">
        <ele>477.6</ele>
        <time>2020-05-10T15:03:35Z</time>
      </trkpt>
      <trkpt lat="48.6772" lon="7.2598">
        <ele>477.6</ele>
        <time>2020-05-10T15:03:36Z</time>
      </trkpt>
      <trkpt lat="48.67721" lon="7.25981">
        <ele>477.6</ele>
        <time>2020-05-10T15:03:38Z</time>
      </trkpt>
      <trkpt lat="48.67721" lon="7.25981">
        <ele>477.6</ele>
        <time>2020-05-10T15:03:39Z</time>
      </trkpt>
      <trkpt lat="48.67722" lon="7.25981">
        <ele>477.6</ele>
        <time>2020-05-10T15:03:40Z</time>
      </trkpt>
      <trkpt lat="48.67725" lon="7.25985">
        <ele>477.6</ele>
        <time>2020-05-10T15:03:42Z</time>
      </trkpt>
      <trkpt lat="48.67728" lon="7.25988">
        <ele>477.7</ele>
        <time>2020-05-10T15:03:44Z</time>
      </trkpt>
      <trkpt lat="48.67732" lon="7.25992">
        <ele>477.8</ele>
        <time>2020-05-10T15:03:46Z</time>
      </trkpt>
      <trkpt lat="48.67735" lon="7.25994">
        <ele>477.9</ele>
        <time>2020-05-10T15:03:47Z</time>
      </trkpt>
      <trkpt lat="48.67736" lon="7.25994">
        <ele>477.9</ele>
        <time>2020-05-10T15:03:48Z</time>
      </trkpt>
      <trkpt lat="48.67741" lon="7.25998">
        <ele>478.1</ele>
        <time>2020-05-10T15:03:50Z</time>
      </trkpt>
      <trkpt lat="48.67744" lon="7.26002">
        <ele>478.3</ele>
        <time>2020-05-10T15:03:52Z</time>
      </trkpt>
      <trkpt lat="48.67746" lon="7.26004">
        <ele>478.5</ele>
        <time>2020-05-10T15:03:53Z</time>
      </trkpt>
      <trkpt lat="48.67751" lon="7.26006">
        <ele>478.8</ele>
        <time>2020-05-10T15:03:55Z</time>
      </trkpt>
      <trkpt lat="48.67754" lon="7.26007">
        <ele>479</ele>
        <time>2020-05-10T15:03:56Z</time>
      </trkpt>
      <trkpt lat="48.67759" lon="7.26008">
        <ele>479.3</ele>
        <time>2020-05-10T15:03:58Z</time>
      </trkpt>
      <trkpt lat="48.67762" lon="7.2601">
        <ele>479.6</ele>
        <time>2020-05-10T15:03:59Z</time>
      </trkpt>
      <trkpt lat="48.67764" lon="7.26011">
        <ele>479.7</ele>
        <time>2020-05-10T15:04:00Z</time>
      </trkpt>
      <trkpt lat="48.67769" lon="7.26014">
        <ele>480</ele>
        <time>2020-05-10T15:04:02Z</time>
      </trkpt>
      <trkpt lat="48.67774" lon="7.26018">
        <ele>480.2</ele>
        <time>2020-05-10T15:04:04Z</time>
      </trkpt>
      <trkpt lat="48.67778" lon="7.26019">
        <ele>480.4</ele>
        <time>2020-05-10T15:04:06Z</time>
      </trkpt>
      <trkpt lat="48.67781" lon="7.2602">
        <ele>480.4</ele>
        <time>2020-05-10T15:04:07Z</time>
      </trkpt>
      <trkpt lat="48.67786" lon="7.2602">
        <ele>480.5</ele>
        <time>2020-05-10T15:04:09Z</time>
      </trkpt>
      <trkpt lat="48.67787" lon="7.2602">
        <ele>480.6</ele>
        <time>2020-05-10T15:04:10Z</time>
      </trkpt>
      <trkpt lat="48.67791" lon="7.26021">
        <ele>480.7</ele>
        <time>2020-05-10T15:04:12Z</time>
      </trkpt>
      <trkpt lat="48.67796" lon="7.26022">
        <ele>480.8</ele>
        <time>2020-05-10T15:04:13Z</time>
      </trkpt>
      <trkpt lat="48.67797" lon="7.26023">
        <ele>480.8</ele>
        <time>2020-05-10T15:04:14Z</time>
      </trkpt>
      <trkpt lat="48.67802" lon="7.26025">
        <ele>480.9</ele>
        <time>2020-05-10T15:04:16Z</time>
      </trkpt>
      <trkpt lat="48.67806" lon="7.26026">
        <ele>481</ele>
        <time>2020-05-10T15:04:18Z</time>
      </trkpt>
      <trkpt lat="48.67811" lon="7.26028">
        <ele>481.1</ele>
        <time>2020-05-10T15:04:20Z</time>
      </trkpt>
      <trkpt lat="48.67814" lon="7.26028">
        <ele>481.1</ele>
        <time>2020-05-10T15:04:21Z</time>
      </trkpt>
      <trkpt lat="48.67819" lon="7.26028">
        <ele>481.2</ele>
        <time>2020-05-10T15:04:23Z</time>
      </trkpt>
      <trkpt lat="48.67822" lon="7.26029">
        <ele>481.2</ele>
        <time>2020-05-10T15:04:24Z</time>
      </trkpt>
      <trkpt lat="48.67829" lon="7.26029">
        <ele>481.2</ele>
        <time>2020-05-10T15:04:26Z</time>
      </trkpt>
      <trkpt lat="48.67835" lon="7.26029">
        <ele>481.2</ele>
        <time>2020-05-10T15:04:28Z</time>
      </trkpt>
      <trkpt lat="48.67839" lon="7.26028">
        <ele>481.2</ele>
        <time>2020-05-10T15:04:29Z</time>
      </trkpt>
      <trkpt lat="48.6784" lon="7.26028">
        <ele>481.2</ele>
        <time>2020-05-10T15:04:30Z</time>
      </trkpt>
      <trkpt lat="48.67845" lon="7.26027">
        <ele>481.2</ele>
        <time>2020-05-10T15:04:32Z</time>
      </trkpt>
      <trkpt lat="48.67848" lon="7.26027">
        <ele>481.2</ele>
        <time>2020-05-10T15:04:33Z</time>
      </trkpt>
      <trkpt lat="48.67854" lon="7.26024">
        <ele>481.1</ele>
        <time>2020-05-10T15:04:35Z</time>
      </trkpt>
      <trkpt lat="48.67863" lon="7.26021">
        <ele>480.9</ele>
        <time>2020-05-10T15:04:37Z</time>
      </trkpt>
      <trkpt lat="48.67871" lon="7.2602">
        <ele>480.6</ele>
        <time>2020-05-10T15:04:39Z</time>
      </trkpt>
      <trkpt lat="48.67879" lon="7.26018">
        <ele>480</ele>
        <time>2020-05-10T15:04:41Z</time>
      </trkpt>
      <trkpt lat="48.67883" lon="7.26016">
        <ele>479.7</ele>
        <time>2020-05-10T15:04:42Z</time>
      </trkpt>
      <trkpt lat="48.67886" lon="7.26016">
        <ele>479.5</ele>
        <time>2020-05-10T15:04:43Z</time>
      </trkpt>
      <trkpt lat="48.67888" lon="7.26015">
        <ele>479.3</ele>
        <time>2020-05-10T15:04:44Z</time>
      </trkpt>
      <trkpt lat="48.67894" lon="7.26015">
        <ele>478.9</ele>
        <time>2020-05-10T15:04:46Z</time>
      </trkpt>
      <trkpt lat="48.679" lon="7.26013">
        <ele>478.5</ele>
        <time>2020-05-10T15:04:48Z</time>
      </trkpt>
      <trkpt lat="48.67908" lon="7.26009">
        <ele>478.1</ele>
        <time>2020-05-10T15:04:50Z</time>
      </trkpt>
      <trkpt lat="48.67915" lon="7.26002">
        <ele>477.8</ele>
        <time>2020-05-10T15:04:52Z</time>
      </trkpt>
      <trkpt lat="48.67923" lon="7.25995">
        <ele>477.4</ele>
        <time>2020-05-10T15:04:54Z</time>
      </trkpt>
      <trkpt lat="48.67932" lon="7.25988">
        <ele>476.7</ele>
        <time>2020-05-10T15:04:56Z</time>
      </trkpt>
      <trkpt lat="48.67939" lon="7.25984">
        <ele>476.2</ele>
        <time>2020-05-10T15:04:57Z</time>
      </trkpt>
      <trkpt lat="48.67953" lon="7.25975">
        <ele>475.2</ele>
        <time>2020-05-10T15:04:59Z</time>
      </trkpt>
      <trkpt lat="48.67963" lon="7.25965">
        <ele>474.5</ele>
        <time>2020-05-10T15:05:01Z</time>
      </trkpt>
      <trkpt lat="48.67968" lon="7.2596">
        <ele>474.2</ele>
        <time>2020-05-10T15:05:02Z</time>
      </trkpt>
      <trkpt lat="48.67974" lon="7.25954">
        <ele>473.8</ele>
        <time>2020-05-10T15:05:03Z</time>
      </trkpt>
      <trkpt lat="48.67986" lon="7.25937">
        <ele>472.7</ele>
        <time>2020-05-10T15:05:05Z</time>
      </trkpt>
      <trkpt lat="48.67993" lon="7.25929">
        <ele>472</ele>
        <time>2020-05-10T15:05:06Z</time>
      </trkpt>
      <trkpt lat="48.68003" lon="7.25917">
        <ele>471.1</ele>
        <time>2020-05-10T15:05:08Z</time>
      </trkpt>
      <trkpt lat="48.68012" lon="7.25907">
        <ele>470.6</ele>
        <time>2020-05-10T15:05:10Z</time>
      </trkpt>
      <trkpt lat="48.68021" lon="7.259">
        <ele>470</ele>
        <time>2020-05-10T15:05:12Z</time>
      </trkpt>
      <trkpt lat="48.68027" lon="7.25891">
        <ele>469.5</ele>
        <time>2020-05-10T15:05:14Z</time>
      </trkpt>
      <trkpt lat="48.68038" lon="7.25883">
        <ele>468.4</ele>
        <time>2020-05-10T15:05:16Z</time>
      </trkpt>
      <trkpt lat="48.68044" lon="7.25876">
        <ele>467.8</ele>
        <time>2020-05-10T15:05:18Z</time>
      </trkpt>
      <trkpt lat="48.68049" lon="7.25871">
        <ele>467.4</ele>
        <time>2020-05-10T15:05:19Z</time>
      </trkpt>
      <trkpt lat="48.68055" lon="7.25867">
        <ele>466.9</ele>
        <time>2020-05-10T15:05:21Z</time>
      </trkpt>
      <trkpt lat="48.68058" lon="7.25863">
        <ele>466.7</ele>
        <time>2020-05-10T15:05:22Z</time>
      </trkpt>
      <trkpt lat="48.6806" lon="7.2586">
        <ele>466.5</ele>
        <time>2020-05-10T15:05:24Z</time>
      </trkpt>
      <trkpt lat="48.6806" lon="7.25858">
        <ele>466.5</ele>
        <time>2020-05-10T15:05:25Z</time>
      </trkpt>
      <trkpt lat="48.68062" lon="7.25856">
        <ele>466.3</ele>
        <time>2020-05-10T15:05:27Z</time>
      </trkpt>
      <trkpt lat="48.68063" lon="7.25853">
        <ele>466.2</ele>
        <time>2020-05-10T15:05:29Z</time>
      </trkpt>
      <trkpt lat="48.68064" lon="7.25853">
        <ele>466.2</ele>
        <time>2020-05-10T15:05:31Z</time>
      </trkpt>
      <trkpt lat="48.68064" lon="7.25854">
        <ele>466.2</ele>
        <time>2020-05-10T15:05:32Z</time>
      </trkpt>
      <trkpt lat="48.68062" lon="7.25855">
        <ele>466.1</ele>
        <time>2020-05-10T15:05:33Z</time>
      </trkpt>
      <trkpt lat="48.68062" lon="7.25856">
        <ele>466</ele>
        <time>2020-05-10T15:05:34Z</time>
      </trkpt>
      <trkpt lat="48.68065" lon="7.25858">
        <ele>465.9</ele>
        <time>2020-05-10T15:05:36Z</time>
      </trkpt>
      <trkpt lat="48.6807" lon="7.25853">
        <ele>465.7</ele>
        <time>2020-05-10T15:05:38Z</time>
      </trkpt>
      <trkpt lat="48.68077" lon="7.25848">
        <ele>465.7</ele>
        <time>2020-05-10T15:05:40Z</time>
      </trkpt>
      <trkpt lat="48.68088" lon="7.25845">
        <ele>465.9</ele>
        <time>2020-05-10T15:05:42Z</time>
      </trkpt>
      <trkpt lat="48.68096" lon="7.25845">
        <ele>466.4</ele>
        <time>2020-05-10T15:05:44Z</time>
      </trkpt>
      <trkpt lat="48.68098" lon="7.25846">
        <ele>466.6</ele>
        <time>2020-05-10T15:05:45Z</time>
      </trkpt>
      <trkpt lat="48.68103" lon="7.25846">
        <ele>466.9</ele>
        <time>2020-05-10T15:05:47Z</time>
      </trkpt>
      <trkpt lat="48.6811" lon="7.25846">
        <ele>467.1</ele>
        <time>2020-05-10T15:05:49Z</time>
      </trkpt>
      <trkpt lat="48.68114" lon="7.25843">
        <ele>468.1</ele>
        <time>2020-05-10T15:05:50Z</time>
      </trkpt>
      <trkpt lat="48.68117" lon="7.25841">
        <ele>468.2</ele>
        <time>2020-05-10T15:05:51Z</time>
      </trkpt>
      <trkpt lat="48.68124" lon="7.25837">
        <ele>469.2</ele>
        <time>2020-05-10T15:05:53Z</time>
      </trkpt>
      <trkpt lat="48.68129" lon="7.25835">
        <ele>470.2</ele>
        <time>2020-05-10T15:05:55Z</time>
      </trkpt>
      <trkpt lat="48.68131" lon="7.25835">
        <ele>470.4</ele>
        <time>2020-05-10T15:05:56Z</time>
      </trkpt>
      <trkpt lat="48.68136" lon="7.25836">
        <ele>469.8</ele>
        <time>2020-05-10T15:05:58Z</time>
      </trkpt>
      <trkpt lat="48.68139" lon="7.25836">
        <ele>470</ele>
        <time>2020-05-10T15:05:59Z</time>
      </trkpt>
      <trkpt lat="48.68144" lon="7.25833">
        <ele>471.2</ele>
        <time>2020-05-10T15:06:01Z</time>
      </trkpt>
      <trkpt lat="48.6815" lon="7.25829">
        <ele>472.4</ele>
        <time>2020-05-10T15:06:03Z</time>
      </trkpt>
      <trkpt lat="48.68156" lon="7.25825">
        <ele>473.6</ele>
        <time>2020-05-10T15:06:05Z</time>
      </trkpt>
      <trkpt lat="48.68163" lon="7.25818">
        <ele>475.4</ele>
        <time>2020-05-10T15:06:07Z</time>
      </trkpt>
      <trkpt lat="48.6817" lon="7.25814">
        <ele>476.4</ele>
        <time>2020-05-10T15:06:09Z</time>
      </trkpt>
      <trkpt lat="48.68174" lon="7.25811">
        <ele>476.5</ele>
        <time>2020-05-10T15:06:11Z</time>
      </trkpt>
      <trkpt lat="48.68176" lon="7.25811">
        <ele>476.5</ele>
        <time>2020-05-10T15:06:12Z</time>
      </trkpt>
      <trkpt lat="48.68181" lon="7.25809">
        <ele>477.2</ele>
        <time>2020-05-10T15:06:14Z</time>
      </trkpt>
      <trkpt lat="48.68185" lon="7.25806">
        <ele>477.9</ele>
        <time>2020-05-10T15:06:16Z</time>
      </trkpt>
      <trkpt lat="48.68187" lon="7.25803">
        <ele>477.8</ele>
        <time>2020-05-10T15:06:17Z</time>
      </trkpt>
      <trkpt lat="48.6819" lon="7.25799">
        <ele>478.4</ele>
        <time>2020-05-10T15:06:19Z</time>
      </trkpt>
      <trkpt lat="48.68192" lon="7.25798">
        <ele>478.2</ele>
        <time>2020-05-10T15:06:20Z</time>
      </trkpt>
      <trkpt lat="48.68197" lon="7.25796">
        <ele>478.8</ele>
        <time>2020-05-10T15:06:22Z</time>
      </trkpt>
      <trkpt lat="48.68203" lon="7.25794">
        <ele>478.2</ele>
        <time>2020-05-10T15:06:24Z</time>
      </trkpt>
      <trkpt lat="48.68206" lon="7.25793">
        <ele>477.8</ele>
        <time>2020-05-10T15:06:25Z</time>
      </trkpt>
      <trkpt lat="48.68212" lon="7.25791">
        <ele>477.4</ele>
        <time>2020-05-10T15:06:27Z</time>
      </trkpt>
      <trkpt lat="48.68215" lon="7.25789">
        <ele>476.9</ele>
        <time>2020-05-10T15:06:28Z</time>
      </trkpt>
      <trkpt lat="48.68221" lon="7.25786">
        <ele>476.5</ele>
        <time>2020-05-10T15:06:30Z</time>
      </trkpt>
      <trkpt lat="48.68225" lon="7.25784">
        <ele>476.8</ele>
        <time>2020-05-10T15:06:31Z</time>
      </trkpt>
      <trkpt lat="48.6823" lon="7.25784">
        <ele>475.6</ele>
        <time>2020-05-10T15:06:34Z</time>
      </trkpt>
      <trkpt lat="48.68233" lon="7.25781">
        <ele>475</ele>
        <time>2020-05-10T15:06:35Z</time>
      </trkpt>
      <trkpt lat="48.68235" lon="7.2578">
        <ele>475.1</ele>
        <time>2020-05-10T15:06:36Z</time>
      </trkpt>
      <trkpt lat="48.68239" lon="7.25782">
        <ele>473.9</ele>
        <time>2020-05-10T15:06:38Z</time>
      </trkpt>
      <trkpt lat="48.68243" lon="7.2578">
        <ele>474.4</ele>
        <time>2020-05-10T15:06:40Z</time>
      </trkpt>
      <trkpt lat="48.68247" lon="7.25779">
        <ele>473.1</ele>
        <time>2020-05-10T15:06:41Z</time>
      </trkpt>
      <trkpt lat="48.68255" lon="7.25779">
        <ele>471.1</ele>
        <time>2020-05-10T15:06:43Z</time>
      </trkpt>
      <trkpt lat="48.68262" lon="7.2578">
        <ele>468.9</ele>
        <time>2020-05-10T15:06:45Z</time>
      </trkpt>
      <trkpt lat="48.68266" lon="7.25782">
        <ele>467.9</ele>
        <time>2020-05-10T15:06:47Z</time>
      </trkpt>
      <trkpt lat="48.68272" lon="7.25781">
        <ele>466.8</ele>
        <time>2020-05-10T15:06:49Z</time>
      </trkpt>
      <trkpt lat="48.68281" lon="7.25778">
        <ele>466.1</ele>
        <time>2020-05-10T15:06:51Z</time>
      </trkpt>
      <trkpt lat="48.6829" lon="7.25777">
        <ele>464.4</ele>
        <time>2020-05-10T15:06:53Z</time>
      </trkpt>
      <trkpt lat="48.68294" lon="7.25777">
        <ele>463.9</ele>
        <time>2020-05-10T15:06:54Z</time>
      </trkpt>
      <trkpt lat="48.68303" lon="7.25777">
        <ele>461.3</ele>
        <time>2020-05-10T15:06:55Z</time>
      </trkpt>
      <trkpt lat="48.6831" lon="7.25776">
        <ele>459.9</ele>
        <time>2020-05-10T15:06:56Z</time>
      </trkpt>
      <trkpt lat="48.68314" lon="7.25775">
        <ele>460.5</ele>
        <time>2020-05-10T15:06:57Z</time>
      </trkpt>
      <trkpt lat="48.68317" lon="7.25774">
        <ele>459.3</ele>
        <time>2020-05-10T15:06:59Z</time>
      </trkpt>
      <trkpt lat="48.6832" lon="7.25773">
        <ele>459.3</ele>
        <time>2020-05-10T15:07:00Z</time>
      </trkpt>
      <trkpt lat="48.68322" lon="7.25771">
        <ele>459.9</ele>
        <time>2020-05-10T15:07:02Z</time>
      </trkpt>
      <trkpt lat="48.68323" lon="7.2577">
        <ele>459.3</ele>
        <time>2020-05-10T15:07:03Z</time>
      </trkpt>
      <trkpt lat="48.68324" lon="7.25771">
        <ele>459.4</ele>
        <time>2020-05-10T15:07:05Z</time>
      </trkpt>
      <trkpt lat="48.68324" lon="7.25771">
        <ele>459.4</ele>
        <time>2020-05-10T15:07:07Z</time>
      </trkpt>
      <trkpt lat="48.68325" lon="7.2577">
        <ele>459.4</ele>
        <time>2020-05-10T15:07:09Z</time>
      </trkpt>
      <trkpt lat="48.68325" lon="7.2577">
        <ele>459.5</ele>
        <time>2020-05-10T15:07:11Z</time>
      </trkpt>
      <trkpt lat="48.68325" lon="7.2577">
        <ele>459.5</ele>
        <time>2020-05-10T15:07:12Z</time>
      </trkpt>
      <trkpt lat="48.68325" lon="7.25771">
        <ele>459.5</ele>
        <time>2020-05-10T15:07:14Z</time>
      </trkpt>
      <trkpt lat="48.68325" lon="7.25771">
        <ele>459.5</ele>
        <time>2020-05-10T15:07:16Z</time>
      </trkpt>
      <trkpt lat="48.68325" lon="7.25771">
        <ele>459.6</ele>
        <time>2020-05-10T15:07:17Z</time>
      </trkpt>
      <trkpt lat="48.68326" lon="7.25772">
        <ele>457.9</ele>
        <time>2020-05-10T15:07:18Z</time>
      </trkpt>
      <trkpt lat="48.68326" lon="7.25771">
        <ele>459.1</ele>
        <time>2020-05-10T15:07:19Z</time>
      </trkpt>
      <trkpt lat="48.68326" lon="7.25771">
        <ele>459.1</ele>
        <time>2020-05-10T15:07:20Z</time>
      </trkpt>
      <trkpt lat="48.68326" lon="7.2577">
        <ele>459.1</ele>
        <time>2020-05-10T15:07:22Z</time>
      </trkpt>
      <trkpt lat="48.68326" lon="7.2577">
        <ele>459.1</ele>
        <time>2020-05-10T15:07:24Z</time>
      </trkpt>
      <trkpt lat="48.68327" lon="7.2577">
        <ele>459.2</ele>
        <time>2020-05-10T15:07:25Z</time>
      </trkpt>
      <trkpt lat="48.68327" lon="7.25771">
        <ele>459.2</ele>
        <time>2020-05-10T15:07:27Z</time>
      </trkpt>
      <trkpt lat="48.68328" lon="7.2577">
        <ele>459.2</ele>
        <time>2020-05-10T15:07:28Z</time>
      </trkpt>
      <trkpt lat="48.6833" lon="7.25769">
        <ele>458.7</ele>
        <time>2020-05-10T15:07:30Z</time>
      </trkpt>
      <trkpt lat="48.68331" lon="7.25768">
        <ele>458.7</ele>
        <time>2020-05-10T15:07:31Z</time>
      </trkpt>
      <trkpt lat="48.68332" lon="7.25768">
        <ele>458.2</ele>
        <time>2020-05-10T15:07:32Z</time>
      </trkpt>
      <trkpt lat="48.68334" lon="7.25768">
        <ele>458.2</ele>
        <time>2020-05-10T15:07:33Z</time>
      </trkpt>
      <trkpt lat="48.6834" lon="7.25766">
        <ele>457.6</ele>
        <time>2020-05-10T15:07:35Z</time>
      </trkpt>
      <trkpt lat="48.68345" lon="7.25764">
        <ele>457.1</ele>
        <time>2020-05-10T15:07:36Z</time>
      </trkpt>
      <trkpt lat="48.68349" lon="7.25762">
        <ele>457.3</ele>
        <time>2020-05-10T15:07:37Z</time>
      </trkpt>
      <trkpt lat="48.68353" lon="7.25761">
        <ele>456.8</ele>
        <time>2020-05-10T15:07:38Z</time>
      </trkpt>
      <trkpt lat="48.68355" lon="7.2576">
        <ele>456.4</ele>
        <time>2020-05-10T15:07:39Z</time>
      </trkpt>
      <trkpt lat="48.6836" lon="7.25761">
        <ele>455.4</ele>
        <time>2020-05-10T15:07:41Z</time>
      </trkpt>
      <trkpt lat="48.68364" lon="7.25761">
        <ele>454.9</ele>
        <time>2020-05-10T15:07:42Z</time>
      </trkpt>
      <trkpt lat="48.68373" lon="7.2576">
        <ele>453.4</ele>
        <time>2020-05-10T15:07:44Z</time>
      </trkpt>
      <trkpt lat="48.68381" lon="7.25761">
        <ele>452.2</ele>
        <time>2020-05-10T15:07:45Z</time>
      </trkpt>
      <trkpt lat="48.68395" lon="7.25759">
        <ele>450.1</ele>
        <time>2020-05-10T15:07:47Z</time>
      </trkpt>
      <trkpt lat="48.68402" lon="7.25757">
        <ele>450.4</ele>
        <time>2020-05-10T15:07:48Z</time>
      </trkpt>
      <trkpt lat="48.68407" lon="7.25752">
        <ele>450.8</ele>
        <time>2020-05-10T15:07:49Z</time>
      </trkpt>
      <trkpt lat="48.68415" lon="7.25741">
        <ele>453</ele>
        <time>2020-05-10T15:07:51Z</time>
      </trkpt>
      <trkpt lat="48.68421" lon="7.25732">
        <ele>453.5</ele>
        <time>2020-05-10T15:07:53Z</time>
      </trkpt>
      <trkpt lat="48.68427" lon="7.25727">
        <ele>454</ele>
        <time>2020-05-10T15:07:55Z</time>
      </trkpt>
      <trkpt lat="48.68431" lon="7.25726">
        <ele>454.2</ele>
        <time>2020-05-10T15:07:56Z</time>
      </trkpt>
      <trkpt lat="48.68434" lon="7.25723">
        <ele>454.4</ele>
        <time>2020-05-10T15:07:57Z</time>
      </trkpt>
      <trkpt lat="48.68437" lon="7.25722">
        <ele>454.6</ele>
        <time>2020-05-10T15:07:58Z</time>
      </trkpt>
      <trkpt lat="48.68442" lon="7.25719">
        <ele>454.9</ele>
        <time>2020-05-10T15:08:00Z</time>
      </trkpt>
      <trkpt lat="48.68446" lon="7.25719">
        <ele>455.1</ele>
        <time>2020-05-10T15:08:02Z</time>
      </trkpt>
      <trkpt lat="48.68448" lon="7.25718">
        <ele>455.3</ele>
        <time>2020-05-10T15:08:03Z</time>
      </trkpt>
      <trkpt lat="48.68453" lon="7.25715">
        <ele>455.6</ele>
        <time>2020-05-10T15:08:05Z</time>
      </trkpt>
      <trkpt lat="48.68455" lon="7.25713">
        <ele>455.8</ele>
        <time>2020-05-10T15:08:06Z</time>
      </trkpt>
      <trkpt lat="48.68458" lon="7.25711">
        <ele>456</ele>
        <time>2020-05-10T15:08:07Z</time>
      </trkpt>
      <trkpt lat="48.68459" lon="7.2571">
        <ele>456</ele>
        <time>2020-05-10T15:08:08Z</time>
      </trkpt>
      <trkpt lat="48.68463" lon="7.25707">
        <ele>456.3</ele>
        <time>2020-05-10T15:08:10Z</time>
      </trkpt>
      <trkpt lat="48.68465" lon="7.25705">
        <ele>456.4</ele>
        <time>2020-05-10T15:08:11Z</time>
      </trkpt>
      <trkpt lat="48.68469" lon="7.257">
        <ele>456.8</ele>
        <time>2020-05-10T15:08:13Z</time>
      </trkpt>
      <trkpt lat="48.68474" lon="7.25695">
        <ele>457.1</ele>
        <time>2020-05-10T15:08:15Z</time>
      </trkpt>
      <trkpt lat="48.68477" lon="7.25693">
        <ele>457.3</ele>
        <time>2020-05-10T15:08:16Z</time>
      </trkpt>
      <trkpt lat="48.68482" lon="7.25689">
        <ele>457.6</ele>
        <time>2020-05-10T15:08:18Z</time>
      </trkpt>
      <trkpt lat="48.68484" lon="7.25687">
        <ele>457.8</ele>
        <time>2020-05-10T15:08:19Z</time>
      </trkpt>
      <trkpt lat="48.68489" lon="7.25683">
        <ele>458.2</ele>
        <time>2020-05-10T15:08:21Z</time>
      </trkpt>
      <trkpt lat="48.68494" lon="7.25681">
        <ele>458.5</ele>
        <time>2020-05-10T15:08:23Z</time>
      </trkpt>
      <trkpt lat="48.68496" lon="7.2568">
        <ele>458.6</ele>
        <time>2020-05-10T15:08:24Z</time>
      </trkpt>
      <trkpt lat="48.685" lon="7.25677">
        <ele>458.9</ele>
        <time>2020-05-10T15:08:26Z</time>
      </trkpt>
      <trkpt lat="48.68504" lon="7.25673">
        <ele>459.2</ele>
        <time>2020-05-10T15:08:28Z</time>
      </trkpt>
      <trkpt lat="48.68508" lon="7.25669">
        <ele>459.5</ele>
        <time>2020-05-10T15:08:30Z</time>
      </trkpt>
      <trkpt lat="48.6851" lon="7.25667">
        <ele>459.6</ele>
        <time>2020-05-10T15:08:31Z</time>
      </trkpt>
      <trkpt lat="48.68516" lon="7.25663">
        <ele>460</ele>
        <time>2020-05-10T15:08:33Z</time>
      </trkpt>
      <trkpt lat="48.68519" lon="7.25661">
        <ele>460.2</ele>
        <time>2020-05-10T15:08:34Z</time>
      </trkpt>
      <trkpt lat="48.68524" lon="7.25657">
        <ele>460.6</ele>
        <time>2020-05-10T15:08:36Z</time>
      </trkpt>
      <trkpt lat="48.68528" lon="7.25653">
        <ele>460.8</ele>
        <time>2020-05-10T15:08:38Z</time>
      </trkpt>
      <trkpt lat="48.68531" lon="7.25651">
        <ele>461</ele>
        <time>2020-05-10T15:08:39Z</time>
      </trkpt>
      <trkpt lat="48.68536" lon="7.25648">
        <ele>461.4</ele>
        <time>2020-05-10T15:08:41Z</time>
      </trkpt>
      <trkpt lat="48.68542" lon="7.25647">
        <ele>461.8</ele>
        <time>2020-05-10T15:08:43Z</time>
      </trkpt>
      <trkpt lat="48.68545" lon="7.25647">
        <ele>461.9</ele>
        <time>2020-05-10T15:08:44Z</time>
      </trkpt>
      <trkpt lat="48.68551" lon="7.25645">
        <ele>462.3</ele>
        <time>2020-05-10T15:08:46Z</time>
      </trkpt>
      <trkpt lat="48.68557" lon="7.25642">
        <ele>462.6</ele>
        <time>2020-05-10T15:08:48Z</time>
      </trkpt>
      <trkpt lat="48.68562" lon="7.25638">
        <ele>463</ele>
        <time>2020-05-10T15:08:50Z</time>
      </trkpt>
      <trkpt lat="48.68565" lon="7.25636">
        <ele>463.2</ele>
        <time>2020-05-10T15:08:51Z</time>
      </trkpt>
      <trkpt lat="48.68566" lon="7.25635">
        <ele>463.3</ele>
        <time>2020-05-10T15:08:52Z</time>
      </trkpt>
      <trkpt lat="48.68568" lon="7.25633">
        <ele>463.4</ele>
        <time>2020-05-10T15:08:53Z</time>
      </trkpt>
      <trkpt lat="48.68573" lon="7.2563">
        <ele>463.8</ele>
        <time>2020-05-10T15:08:55Z</time>
      </trkpt>
      <trkpt lat="48.68575" lon="7.25629">
        <ele>463.9</ele>
        <time>2020-05-10T15:08:56Z</time>
      </trkpt>
      <trkpt lat="48.68579" lon="7.25627">
        <ele>464.1</ele>
        <time>2020-05-10T15:08:58Z</time>
      </trkpt>
      <trkpt lat="48.6858" lon="7.25626">
        <ele>464.2</ele>
        <time>2020-05-10T15:08:59Z</time>
      </trkpt>
      <trkpt lat="48.68582" lon="7.25625">
        <ele>464.3</ele>
        <time>2020-05-10T15:09:00Z</time>
      </trkpt>
      <trkpt lat="48.68583" lon="7.25621">
        <ele>464.5</ele>
        <time>2020-05-10T15:09:02Z</time>
      </trkpt>
      <trkpt lat="48.68583" lon="7.25621">
        <ele>464.5</ele>
        <time>2020-05-10T15:09:03Z</time>
      </trkpt>
      <trkpt lat="48.68584" lon="7.2562">
        <ele>464.5</ele>
        <time>2020-05-10T15:09:05Z</time>
      </trkpt>
      <trkpt lat="48.68584" lon="7.2562">
        <ele>464.6</ele>
        <time>2020-05-10T15:09:07Z</time>
      </trkpt>
      <trkpt lat="48.68584" lon="7.2562">
        <ele>464.6</ele>
        <time>2020-05-10T15:09:08Z</time>
      </trkpt>
      <trkpt lat="48.68584" lon="7.2562">
        <ele>464.6</ele>
        <time>2020-05-10T15:09:09Z</time>
      </trkpt>
      <trkpt lat="48.68586" lon="7.25619">
        <ele>464.7</ele>
        <time>2020-05-10T15:09:11Z</time>
      </trkpt>
      <trkpt lat="48.68587" lon="7.25618">
        <ele>464.8</ele>
        <time>2020-05-10T15:09:13Z</time>
      </trkpt>
      <trkpt lat="48.68592" lon="7.25617">
        <ele>465.1</ele>
        <time>2020-05-10T15:09:15Z</time>
      </trkpt>
      <trkpt lat="48.68596" lon="7.25617">
        <ele>465.3</ele>
        <time>2020-05-10T15:09:16Z</time>
      </trkpt>
      <trkpt lat="48.68597" lon="7.25617">
        <ele>465.4</ele>
        <time>2020-05-10T15:09:17Z</time>
      </trkpt>
      <trkpt lat="48.686" lon="7.25617">
        <ele>465.6</ele>
        <time>2020-05-10T15:09:19Z</time>
      </trkpt>
      <trkpt lat="48.68604" lon="7.25615">
        <ele>465.8</ele>
        <time>2020-05-10T15:09:21Z</time>
      </trkpt>
      <trkpt lat="48.68607" lon="7.25612">
        <ele>466</ele>
        <time>2020-05-10T15:09:23Z</time>
      </trkpt>
      <trkpt lat="48.68611" lon="7.2561">
        <ele>466.3</ele>
        <time>2020-05-10T15:09:25Z</time>
      </trkpt>
      <trkpt lat="48.68616" lon="7.25608">
        <ele>466.6</ele>
        <time>2020-05-10T15:09:27Z</time>
      </trkpt>
      <trkpt lat="48.68619" lon="7.25607">
        <ele>466.8</ele>
        <time>2020-05-10T15:09:28Z</time>
      </trkpt>
      <trkpt lat="48.68624" lon="7.25608">
        <ele>467.1</ele>
        <time>2020-05-10T15:09:29Z</time>
      </trkpt>
      <trkpt lat="48.68625" lon="7.25608">
        <ele>467.2</ele>
        <time>2020-05-10T15:09:30Z</time>
      </trkpt>
      <trkpt lat="48.68631" lon="7.25609">
        <ele>467.5</ele>
        <time>2020-05-10T15:09:32Z</time>
      </trkpt>
      <trkpt lat="48.68635" lon="7.25609">
        <ele>467.8</ele>
        <time>2020-05-10T15:09:34Z</time>
      </trkpt>
      <trkpt lat="48.68639" lon="7.25609">
        <ele>468</ele>
        <time>2020-05-10T15:09:35Z</time>
      </trkpt>
      <trkpt lat="48.68642" lon="7.25609">
        <ele>468.2</ele>
        <time>2020-05-10T15:09:36Z</time>
      </trkpt>
      <trkpt lat="48.68647" lon="7.25611">
        <ele>468.5</ele>
        <time>2020-05-10T15:09:38Z</time>
      </trkpt>
      <trkpt lat="48.68649" lon="7.25611">
        <ele>468.6</ele>
        <time>2020-05-10T15:09:39Z</time>
      </trkpt>
      <trkpt lat="48.68653" lon="7.2561">
        <ele>468.9</ele>
        <time>2020-05-10T15:09:41Z</time>
      </trkpt>
      <trkpt lat="48.68656" lon="7.25611">
        <ele>469.1</ele>
        <time>2020-05-10T15:09:42Z</time>
      </trkpt>
      <trkpt lat="48.68661" lon="7.25613">
        <ele>469.4</ele>
        <time>2020-05-10T15:09:44Z</time>
      </trkpt>
      <trkpt lat="48.68665" lon="7.25614">
        <ele>469.6</ele>
        <time>2020-05-10T15:09:45Z</time>
      </trkpt>
      <trkpt lat="48.68667" lon="7.25615">
        <ele>469.8</ele>
        <time>2020-05-10T15:09:46Z</time>
      </trkpt>
      <trkpt lat="48.68672" lon="7.25619">
        <ele>470.1</ele>
        <time>2020-05-10T15:09:48Z</time>
      </trkpt>
      <trkpt lat="48.68677" lon="7.25623">
        <ele>470.4</ele>
        <time>2020-05-10T15:09:50Z</time>
      </trkpt>
      <trkpt lat="48.68681" lon="7.25624">
        <ele>470.7</ele>
        <time>2020-05-10T15:09:52Z</time>
      </trkpt>
      <trkpt lat="48.68686" lon="7.25626">
        <ele>471</ele>
        <time>2020-05-10T15:09:54Z</time>
      </trkpt>
      <trkpt lat="48.68689" lon="7.25627">
        <ele>471.2</ele>
        <time>2020-05-10T15:09:56Z</time>
      </trkpt>
      <trkpt lat="48.68692" lon="7.25626">
        <ele>471.4</ele>
        <time>2020-05-10T15:09:57Z</time>
      </trkpt>
      <trkpt lat="48.68698" lon="7.25623">
        <ele>471.7</ele>
        <time>2020-05-10T15:09:59Z</time>
      </trkpt>
      <trkpt lat="48.687" lon="7.25623">
        <ele>471.9</ele>
        <time>2020-05-10T15:10:01Z</time>
      </trkpt>
      <trkpt lat="48.68701" lon="7.25624">
        <ele>472</ele>
        <time>2020-05-10T15:10:03Z</time>
      </trkpt>
      <trkpt lat="48.68701" lon="7.25624">
        <ele>472</ele>
        <time>2020-05-10T15:10:04Z</time>
      </trkpt>
      <trkpt lat="48.687" lon="7.25624">
        <ele>472</ele>
        <time>2020-05-10T15:10:06Z</time>
      </trkpt>
      <trkpt lat="48.687" lon="7.25624">
        <ele>472</ele>
        <time>2020-05-10T15:10:07Z</time>
      </trkpt>
      <trkpt lat="48.68701" lon="7.25625">
        <ele>472</ele>
        <time>2020-05-10T15:10:08Z</time>
      </trkpt>
      <trkpt lat="48.68701" lon="7.25624">
        <ele>472.1</ele>
        <time>2020-05-10T15:10:09Z</time>
      </trkpt>
      <trkpt lat="48.68701" lon="7.25624">
        <ele>472.1</ele>
        <time>2020-05-10T15:10:11Z</time>
      </trkpt>
      <trkpt lat="48.68701" lon="7.25623">
        <ele>472.1</ele>
        <time>2020-05-10T15:10:12Z</time>
      </trkpt>
      <trkpt lat="48.68703" lon="7.25622">
        <ele>472.2</ele>
        <time>2020-05-10T15:10:14Z</time>
      </trkpt>
      <trkpt lat="48.68706" lon="7.25619">
        <ele>472.4</ele>
        <time>2020-05-10T15:10:16Z</time>
      </trkpt>
      <trkpt lat="48.68707" lon="7.25618">
        <ele>472.5</ele>
        <time>2020-05-10T15:10:17Z</time>
      </trkpt>
      <trkpt lat="48.68708" lon="7.25614">
        <ele>473</ele>
        <time>2020-05-10T15:10:19Z</time>
      </trkpt>
      <trkpt lat="48.68709" lon="7.25612">
        <ele>473.1</ele>
        <time>2020-05-10T15:10:20Z</time>
      </trkpt>
      <trkpt lat="48.6871" lon="7.2561">
        <ele>473.2</ele>
        <time>2020-05-10T15:10:21Z</time>
      </trkpt>
      <trkpt lat="48.68711" lon="7.25608">
        <ele>473.3</ele>
        <time>2020-05-10T15:10:23Z</time>
      </trkpt>
      <trkpt lat="48.68711" lon="7.25605">
        <ele>473.4</ele>
        <time>2020-05-10T15:10:24Z</time>
      </trkpt>
      <trkpt lat="48.68712" lon="7.256">
        <ele>473.6</ele>
        <time>2020-05-10T15:10:26Z</time>
      </trkpt>
      <trkpt lat="48.68712" lon="7.25597">
        <ele>473.6</ele>
        <time>2020-05-10T15:10:27Z</time>
      </trkpt>
      <trkpt lat="48.68713" lon="7.25592">
        <ele>473.7</ele>
        <time>2020-05-10T15:10:29Z</time>
      </trkpt>
      <trkpt lat="48.68714" lon="7.25589">
        <ele>473.8</ele>
        <time>2020-05-10T15:10:30Z</time>
      </trkpt>
      <trkpt lat="48.68716" lon="7.25581">
        <ele>474</ele>
        <time>2020-05-10T15:10:32Z</time>
      </trkpt>
      <trkpt lat="48.68719" lon="7.25575">
        <ele>474.2</ele>
        <time>2020-05-10T15:10:34Z</time>
      </trkpt>
      <trkpt lat="48.6872" lon="7.25573">
        <ele>474.3</ele>
        <time>2020-05-10T15:10:35Z</time>
      </trkpt>
      <trkpt lat="48.68724" lon="7.2557">
        <ele>474.6</ele>
        <time>2020-05-10T15:10:37Z</time>
      </trkpt>
      <trkpt lat="48.68726" lon="7.25567">
        <ele>474.8</ele>
        <time>2020-05-10T15:10:38Z</time>
      </trkpt>
      <trkpt lat="48.6873" lon="7.25561">
        <ele>475.3</ele>
        <time>2020-05-10T15:10:40Z</time>
      </trkpt>
      <trkpt lat="48.68732" lon="7.25558">
        <ele>475.5</ele>
        <time>2020-05-10T15:10:41Z</time>
      </trkpt>
      <trkpt lat="48.68733" lon="7.25557">
        <ele>475.6</ele>
        <time>2020-05-10T15:10:42Z</time>
      </trkpt>
      <trkpt lat="48.68736" lon="7.25552">
        <ele>476</ele>
        <time>2020-05-10T15:10:44Z</time>
      </trkpt>
      <trkpt lat="48.68739" lon="7.2555">
        <ele>476.3</ele>
        <time>2020-05-10T15:10:45Z</time>
      </trkpt>
      <trkpt lat="48.68743" lon="7.25546">
        <ele>476.8</ele>
        <time>2020-05-10T15:10:47Z</time>
      </trkpt>
      <trkpt lat="48.68748" lon="7.25542">
        <ele>477.4</ele>
        <time>2020-05-10T15:10:49Z</time>
      </trkpt>
      <trkpt lat="48.68751" lon="7.25538">
        <ele>477.4</ele>
        <time>2020-05-10T15:10:51Z</time>
      </trkpt>
      <trkpt lat="48.68755" lon="7.25538">
        <ele>477.4</ele>
        <time>2020-05-10T15:10:52Z</time>
      </trkpt>
      <trkpt lat="48.68756" lon="7.25538">
        <ele>477.4</ele>
        <time>2020-05-10T15:10:53Z</time>
      </trkpt>
      <trkpt lat="48.68761" lon="7.25539">
        <ele>477.5</ele>
        <time>2020-05-10T15:10:55Z</time>
      </trkpt>
      <trkpt lat="48.68764" lon="7.25539">
        <ele>477.5</ele>
        <time>2020-05-10T15:10:56Z</time>
      </trkpt>
      <trkpt lat="48.68767" lon="7.2554">
        <ele>477.5</ele>
        <time>2020-05-10T15:10:57Z</time>
      </trkpt>
      <trkpt lat="48.68772" lon="7.25541">
        <ele>477.5</ele>
        <time>2020-05-10T15:10:59Z</time>
      </trkpt>
      <trkpt lat="48.68778" lon="7.25541">
        <ele>477.6</ele>
        <time>2020-05-10T15:11:01Z</time>
      </trkpt>
      <trkpt lat="48.6878" lon="7.25542">
        <ele>477.6</ele>
        <time>2020-05-10T15:11:02Z</time>
      </trkpt>
      <trkpt lat="48.68786" lon="7.25543">
        <ele>477.6</ele>
        <time>2020-05-10T15:11:04Z</time>
      </trkpt>
      <trkpt lat="48.68792" lon="7.25543">
        <ele>477.6</ele>
        <time>2020-05-10T15:11:06Z</time>
      </trkpt>
      <trkpt lat="48.68799" lon="7.25544">
        <ele>477.7</ele>
        <time>2020-05-10T15:11:08Z</time>
      </trkpt>
      <trkpt lat="48.68806" lon="7.25546">
        <ele>477.7</ele>
        <time>2020-05-10T15:11:10Z</time>
      </trkpt>
      <trkpt lat="48.68809" lon="7.25547">
        <ele>477.7</ele>
        <time>2020-05-10T15:11:11Z</time>
      </trkpt>
      <trkpt lat="48.68816" lon="7.2555">
        <ele>477.8</ele>
        <time>2020-05-10T15:11:13Z</time>
      </trkpt>
      <trkpt lat="48.68823" lon="7.25553">
        <ele>477.8</ele>
        <time>2020-05-10T15:11:15Z</time>
      </trkpt>
      <trkpt lat="48.68826" lon="7.25554">
        <ele>477.8</ele>
        <time>2020-05-10T15:11:16Z</time>
      </trkpt>
      <trkpt lat="48.68829" lon="7.25556">
        <ele>477.8</ele>
        <time>2020-05-10T15:11:17Z</time>
      </trkpt>
      <trkpt lat="48.68833" lon="7.25557">
        <ele>477.8</ele>
        <time>2020-05-10T15:11:19Z</time>
      </trkpt>
      <trkpt lat="48.68839" lon="7.25558">
        <ele>477.7</ele>
        <time>2020-05-10T15:11:20Z</time>
      </trkpt>
      <trkpt lat="48.68845" lon="7.25558">
        <ele>477.7</ele>
        <time>2020-05-10T15:11:22Z</time>
      </trkpt>
      <trkpt lat="48.68849" lon="7.25556">
        <ele>477.7</ele>
        <time>2020-05-10T15:11:23Z</time>
      </trkpt>
      <trkpt lat="48.68856" lon="7.25553">
        <ele>477.7</ele>
        <time>2020-05-10T15:11:25Z</time>
      </trkpt>
      <trkpt lat="48.68864" lon="7.25552">
        <ele>477.9</ele>
        <time>2020-05-10T15:11:27Z</time>
      </trkpt>
      <trkpt lat="48.68867" lon="7.25552">
        <ele>478</ele>
        <time>2020-05-10T15:11:28Z</time>
      </trkpt>
      <trkpt lat="48.68874" lon="7.25555">
        <ele>478.1</ele>
        <time>2020-05-10T15:11:30Z</time>
      </trkpt>
      <trkpt lat="48.68877" lon="7.25556">
        <ele>478.2</ele>
        <time>2020-05-10T15:11:31Z</time>
      </trkpt>
      <trkpt lat="48.68884" lon="7.2556">
        <ele>478.3</ele>
        <time>2020-05-10T15:11:33Z</time>
      </trkpt>
    </trkseg>
  </trk>
</gpx>